createdAt,value
2022-12-25T00:00:50.352Z,3.55
2022-12-25T00:03:16.954Z,2.80
2022-12-25T00:05:43.556Z,3.20
2022-12-25T00:08:10.348Z,3.38
2022-12-25T00:10:43.019Z,3.65
2022-12-25T00:13:11.671Z,3.78
2022-12-25T00:15:40.207Z,3.78
2022-12-25T00:18:06.702Z,3.30
2022-12-25T00:20:33.223Z,3.47
2022-12-25T00:22:59.685Z,3.78
2022-12-25T00:25:26.166Z,3.97
2022-12-25T00:27:52.705Z,3.90
2022-12-25T00:30:19.314Z,3.78
2022-12-25T00:32:45.805Z,4.07
2022-12-25T00:35:12.376Z,4.15
2022-12-25T00:37:38.891Z,3.97
2022-12-25T00:40:05.984Z,3.70
2022-12-25T00:42:32.525Z,3.63
2022-12-25T00:44:59.034Z,2.92
2022-12-25T00:47:25.622Z,3.78
2022-12-25T00:49:52.212Z,3.83
2022-12-25T00:52:18.680Z,3.38
2022-12-25T00:54:45.193Z,3.88
2022-12-25T00:57:11.683Z,3.80
2022-12-25T00:59:38.162Z,3.15
2022-12-25T01:02:04.768Z,3.67
2022-12-25T01:04:31.517Z,3.38
2022-12-25T01:06:58.036Z,3.40
2022-12-25T01:09:24.542Z,2.85
2022-12-25T01:11:51.073Z,2.83
2022-12-25T01:14:17.634Z,3.05
2022-12-25T01:16:44.472Z,2.70
2022-12-25T01:19:11.444Z,3.30
2022-12-25T01:21:38.287Z,2.92
2022-12-25T01:24:05.161Z,2.13
2022-12-25T01:26:31.642Z,3.20
2022-12-25T01:28:58.168Z,2.75
2022-12-25T01:31:24.855Z,2.78
2022-12-25T01:33:52.530Z,2.50
2022-12-25T01:36:24.478Z,2.42
2022-12-25T01:38:52.251Z,3.22
2022-12-25T01:41:22.310Z,4.70
2022-12-25T01:46:28.012Z,3.35
2022-12-25T01:48:57.707Z,3.53
2022-12-25T01:51:29.941Z,3.45
2022-12-25T01:53:59.781Z,3.75
2022-12-25T01:56:27.909Z,4.15
2022-12-25T01:58:56.545Z,3.63
2022-12-25T02:01:23.350Z,3.50
2022-12-25T02:03:49.931Z,3.75
2022-12-25T02:06:16.483Z,2.90
2022-12-25T02:08:43.270Z,2.95
2022-12-25T02:11:09.763Z,3.15
2022-12-25T02:13:36.305Z,2.80
2022-12-25T02:16:09.710Z,2.75
2022-12-25T02:18:51.622Z,2.45
2022-12-25T02:24:35.171Z,2.33
2022-12-25T02:27:15.163Z,2.22
2022-12-25T02:30:01.985Z,2.42
2022-12-25T02:32:34.577Z,2.20
2022-12-25T02:35:27.676Z,2.75
2022-12-25T02:38:03.280Z,2.90
2022-12-25T02:40:36.311Z,2.75
2022-12-25T02:43:07.063Z,2.38
2022-12-25T02:45:40.640Z,2.97
2022-12-25T02:48:10.027Z,2.35
2022-12-25T02:50:36.606Z,2.50
2022-12-25T02:53:04.074Z,2.75
2022-12-25T02:55:38.320Z,2.88
2022-12-25T02:58:11.346Z,2.22
2022-12-25T03:00:42.342Z,2.33
2022-12-25T03:03:11.859Z,3.10
2022-12-25T03:05:41.144Z,4.00
2022-12-25T03:08:13.651Z,3.03
2022-12-25T03:10:45.030Z,2.70
2022-12-25T03:13:23.088Z,2.90
2022-12-25T03:15:50.168Z,2.53
2022-12-25T03:18:21.402Z,2.83
2022-12-25T03:20:48.513Z,2.88
2022-12-25T03:23:20.071Z,2.60
2022-12-25T03:25:46.564Z,2.67
2022-12-25T03:28:13.107Z,2.40
2022-12-25T03:30:52.019Z,3.10
2022-12-25T03:33:43.852Z,2.25
2022-12-25T03:36:12.659Z,2.85
2022-12-25T03:38:48.387Z,2.97
2022-12-25T03:41:30.373Z,3.13
2022-12-25T03:46:34.905Z,2.70
2022-12-25T03:49:16.100Z,2.00
2022-12-25T03:51:43.972Z,2.67
2022-12-25T03:54:13.970Z,2.47
2022-12-25T03:56:42.598Z,2.55
2022-12-25T03:59:09.176Z,2.95
2022-12-25T04:01:35.718Z,2.58
2022-12-25T04:04:02.253Z,2.33
2022-12-25T04:06:28.789Z,2.60
2022-12-25T04:08:55.261Z,2.78
2022-12-25T04:11:21.734Z,2.25
2022-12-25T04:13:48.257Z,2.55
2022-12-25T04:16:14.900Z,2.47
2022-12-25T04:18:41.566Z,2.55
2022-12-25T04:21:08.084Z,3.30
2022-12-25T04:23:34.619Z,2.90
2022-12-25T04:26:01.171Z,2.50
2022-12-25T04:28:27.739Z,2.80
2022-12-25T04:30:54.266Z,2.90
2022-12-25T04:33:20.838Z,2.78
2022-12-25T04:35:47.978Z,2.55
2022-12-25T04:38:14.533Z,2.58
2022-12-25T04:40:41.062Z,2.53
2022-12-25T04:43:07.571Z,2.70
2022-12-25T04:45:34.098Z,2.72
2022-12-25T04:48:00.875Z,2.75
2022-12-25T04:50:27.431Z,2.40
2022-12-25T04:52:54.040Z,2.63
2022-12-25T04:55:20.710Z,2.65
2022-12-25T04:57:47.225Z,3.05
2022-12-25T05:00:14.022Z,2.30
2022-12-25T05:02:40.882Z,2.22
2022-12-25T05:05:07.745Z,1.92
2022-12-25T05:07:34.261Z,2.45
2022-12-25T05:10:00.766Z,2.22
2022-12-25T05:12:27.270Z,2.10
2022-12-25T05:14:53.833Z,2.70
2022-12-25T05:17:20.510Z,2.47
2022-12-25T05:19:47.082Z,1.90
2022-12-25T05:22:13.603Z,2.10
2022-12-25T05:24:40.060Z,2.22
2022-12-25T05:27:06.594Z,2.05
2022-12-25T05:29:33.083Z,2.25
2022-12-25T05:31:59.595Z,1.95
2022-12-25T05:34:26.172Z,1.90
2022-12-25T05:36:52.678Z,1.85
2022-12-25T05:39:19.309Z,1.80
2022-12-25T05:41:45.790Z,1.92
2022-12-25T05:44:12.309Z,2.35
2022-12-25T05:46:38.879Z,2.10
2022-12-25T05:49:05.410Z,1.80
2022-12-25T05:51:32.264Z,2.30
2022-12-25T05:53:58.755Z,2.67
2022-12-25T05:56:25.284Z,2.05
2022-12-25T05:58:51.789Z,2.70
2022-12-25T06:01:25.032Z,2.50
2022-12-25T06:03:51.758Z,2.20
2022-12-25T06:06:18.342Z,2.10
2022-12-25T06:08:45.383Z,2.30
2022-12-25T06:11:13.999Z,2.35
2022-12-25T06:13:40.777Z,2.95
2022-12-25T06:16:09.623Z,2.35
2022-12-25T06:18:41.945Z,2.40
2022-12-25T06:21:13.429Z,2.30
2022-12-25T06:23:40.777Z,2.22
2022-12-25T06:26:10.047Z,2.35
2022-12-25T06:28:36.867Z,2.40
2022-12-25T06:31:12.390Z,2.00
2022-12-25T06:33:39.352Z,2.10
2022-12-25T06:36:08.162Z,2.03
2022-12-25T06:38:34.822Z,2.67
2022-12-25T06:41:16.193Z,9.45
2022-12-25T06:43:43.002Z,5.45
2022-12-25T06:46:12.288Z,4.95
2022-12-25T06:48:41.258Z,5.53
2022-12-25T06:51:08.132Z,3.90
2022-12-25T06:53:40.308Z,3.13
2022-12-25T06:56:12.600Z,4.00
2022-12-25T06:58:39.112Z,6.78
2022-12-25T07:01:09.711Z,6.20
2022-12-25T07:03:36.492Z,4.30
2022-12-25T07:06:02.992Z,4.55
2022-12-25T07:08:29.473Z,4.43
2022-12-25T07:10:56.001Z,4.40
2022-12-25T07:13:22.517Z,3.78
2022-12-25T07:15:59.189Z,8.25
2022-12-25T07:18:26.607Z,6.30
2022-12-25T07:20:53.359Z,4.72
2022-12-25T07:23:19.867Z,5.13
2022-12-25T07:25:57.190Z,3.55
2022-12-25T07:28:23.861Z,2.92
2022-12-25T07:30:50.419Z,2.40
2022-12-25T07:33:17.113Z,4.00
2022-12-25T07:35:43.916Z,4.30
2022-12-25T07:38:10.842Z,3.78
2022-12-25T07:40:37.590Z,2.72
2022-12-25T07:43:04.413Z,2.40
2022-12-25T07:45:30.996Z,2.00
2022-12-25T07:48:02.717Z,2.25
2022-12-25T07:50:31.586Z,1.63
2022-12-25T07:52:58.453Z,1.73
2022-12-25T07:55:24.984Z,1.70
2022-12-25T07:57:51.830Z,1.35
2022-12-25T08:00:18.847Z,1.60
2022-12-25T08:02:45.588Z,1.85
2022-12-25T08:05:12.212Z,2.30
2022-12-25T08:07:38.834Z,2.83
2022-12-25T08:10:05.924Z,3.83
2022-12-25T08:12:32.470Z,6.72
2022-12-25T08:14:58.981Z,7.50
2022-12-25T08:17:25.553Z,7.43
2022-12-25T08:19:52.032Z,7.68
2022-12-25T08:22:18.585Z,3.78
2022-12-25T08:24:45.127Z,5.00
2022-12-25T08:27:11.668Z,3.95
2022-12-25T08:29:38.189Z,5.90
2022-12-25T08:32:04.727Z,4.40
2022-12-25T08:34:31.272Z,5.50
2022-12-25T08:36:57.894Z,6.50
2022-12-25T08:39:24.583Z,5.15
2022-12-25T08:41:51.120Z,8.05
2022-12-25T08:44:17.674Z,13.18
2022-12-25T08:46:44.258Z,9.80
2022-12-25T08:49:10.834Z,15.65
2022-12-25T08:51:37.392Z,6.25
2022-12-25T08:54:04.508Z,3.63
2022-12-25T08:56:31.045Z,2.75
2022-12-25T08:58:57.529Z,2.65
2022-12-25T09:01:24.158Z,2.50
2022-12-25T09:03:50.834Z,2.00
2022-12-25T09:06:17.419Z,2.03
2022-12-25T09:08:49.285Z,2.13
2022-12-25T09:11:17.937Z,2.22
2022-12-25T09:13:44.723Z,2.75
2022-12-25T09:16:18.434Z,2.05
2022-12-25T09:18:45.195Z,2.38
2022-12-25T09:21:14.559Z,2.28
2022-12-25T09:23:42.181Z,3.20
2022-12-25T09:26:11.753Z,2.60
2022-12-25T09:28:38.283Z,2.78
2022-12-25T09:31:05.038Z,2.83
2022-12-25T09:33:31.619Z,2.70
2022-12-25T09:36:01.115Z,3.78
2022-12-25T09:38:28.263Z,2.97
2022-12-25T09:41:16.828Z,4.85
2022-12-25T09:44:06.643Z,3.97
2022-12-25T09:46:40.865Z,2.70
2022-12-25T09:49:27.115Z,2.80
2022-12-25T09:52:00.151Z,2.88
2022-12-25T09:54:36.994Z,2.25
2022-12-25T09:57:03.809Z,2.15
2022-12-25T09:59:30.613Z,2.60
2022-12-25T10:02:10.578Z,2.08
2022-12-25T10:05:12.438Z,2.15
2022-12-25T10:07:50.988Z,2.03
2022-12-25T10:10:39.320Z,2.20
2022-12-25T10:13:30.591Z,3.17
2022-12-25T10:16:15.586Z,2.60
2022-12-25T10:18:57.202Z,2.35
2022-12-25T10:21:24.408Z,8.73
2022-12-25T10:24:05.895Z,7.28
2022-12-25T10:26:34.226Z,6.30
2022-12-25T10:29:14.101Z,14.50
2022-12-25T10:31:44.218Z,13.68
2022-12-25T10:34:13.005Z,6.28
2022-12-25T10:36:40.826Z,4.70
2022-12-25T10:39:07.731Z,4.93
2022-12-25T10:42:16.360Z,8.80
2022-12-25T10:45:13.965Z,11.65
2022-12-25T10:47:42.121Z,10.52
2022-12-25T10:50:22.745Z,5.18
2022-12-25T10:53:04.095Z,7.45
2022-12-25T10:55:31.207Z,3.85
2022-12-25T10:57:58.305Z,3.63
2022-12-25T11:00:28.006Z,3.22
2022-12-25T11:02:55.160Z,2.60
2022-12-25T11:05:30.507Z,2.90
2022-12-25T11:07:59.406Z,2.88
2022-12-25T11:10:28.403Z,2.97
2022-12-25T11:12:55.218Z,3.15
2022-12-25T11:15:32.260Z,3.05
2022-12-25T11:17:58.769Z,3.08
2022-12-25T11:20:25.793Z,3.15
2022-12-25T11:22:52.587Z,3.35
2022-12-25T11:25:24.889Z,4.82
2022-12-25T11:27:59.747Z,3.85
2022-12-25T11:30:28.750Z,3.50
2022-12-25T11:33:00.750Z,6.70
2022-12-25T11:35:34.150Z,5.53
2022-12-25T11:38:00.833Z,4.93
2022-12-25T11:41:00.955Z,4.57
2022-12-25T11:43:46.636Z,5.88
2022-12-25T11:46:35.703Z,8.43
2022-12-25T11:49:06.582Z,5.80
2022-12-25T11:51:37.797Z,4.90
2022-12-25T11:54:21.266Z,8.15
2022-12-25T11:56:48.613Z,5.43
2022-12-25T11:59:30.505Z,5.57
2022-12-25T12:02:00.283Z,6.00
2022-12-25T12:04:38.516Z,6.07
2022-12-25T12:10:01.194Z,5.13
2022-12-25T12:13:12.467Z,5.65
2022-12-25T12:15:49.622Z,4.60
2022-12-25T12:18:34.260Z,8.73
2022-12-25T12:21:27.133Z,10.27
2022-12-25T12:24:08.465Z,7.88
2022-12-25T12:26:37.555Z,6.55
2022-12-25T12:29:06.602Z,4.50
2022-12-25T12:31:45.345Z,11.00
2022-12-25T12:34:23.774Z,6.45
2022-12-25T12:36:53.849Z,5.03
2022-12-25T12:39:25.442Z,4.75
2022-12-25T12:41:52.947Z,4.43
2022-12-25T12:44:21.482Z,5.22
2022-12-25T12:46:56.324Z,5.03
2022-12-25T12:49:28.755Z,5.82
2022-12-25T12:52:06.066Z,5.90
2022-12-25T12:54:33.058Z,3.60
2022-12-25T12:57:21.334Z,3.65
2022-12-25T12:59:49.043Z,4.15
2022-12-25T13:02:33.924Z,12.57
2022-12-25T13:05:22.859Z,16.40
2022-12-25T13:08:26.643Z,20.65
2022-12-25T13:11:12.792Z,7.05
2022-12-25T13:13:44.802Z,4.05
2022-12-25T13:16:26.139Z,4.47
2022-12-25T13:18:54.232Z,3.72
2022-12-25T13:21:29.508Z,7.75
2022-12-25T13:24:17.766Z,6.55
2022-12-25T13:26:44.457Z,7.18
2022-12-25T13:29:23.866Z,11.77
2022-12-25T13:31:50.576Z,18.75
2022-12-25T13:34:41.447Z,8.23
2022-12-25T13:37:15.548Z,4.40
2022-12-25T13:40:04.799Z,4.07
2022-12-25T13:42:34.894Z,6.55
2022-12-25T13:45:21.539Z,6.45
2022-12-25T13:47:54.708Z,7.32
2022-12-25T13:50:30.711Z,6.70
2022-12-25T13:53:10.297Z,6.93
2022-12-25T13:55:37.238Z,9.05
2022-12-25T13:58:06.487Z,7.38
2022-12-25T14:01:02.759Z,5.43
2022-12-25T14:03:41.550Z,5.40
2022-12-25T14:06:25.668Z,4.68
2022-12-25T14:08:54.394Z,4.65
2022-12-25T14:11:24.094Z,12.00
2022-12-25T14:13:56.278Z,5.57
2022-12-25T14:16:23.333Z,6.55
2022-12-25T14:19:02.924Z,7.40
2022-12-25T14:21:39.204Z,5.95
2022-12-25T14:24:13.866Z,5.43
2022-12-25T14:26:40.612Z,6.15
2022-12-25T14:29:16.863Z,5.65
2022-12-25T14:31:45.662Z,7.22
2022-12-25T14:34:16.698Z,8.23
2022-12-25T14:36:43.529Z,6.85
2022-12-25T14:39:31.031Z,7.03
2022-12-25T14:41:57.924Z,5.47
2022-12-25T14:44:38.787Z,4.47
2022-12-25T14:47:12.216Z,4.88
2022-12-25T14:49:38.811Z,4.65
2022-12-25T14:52:27.979Z,3.88
2022-12-25T14:55:00.793Z,4.00
2022-12-25T14:57:33.712Z,3.63
2022-12-25T15:00:30.923Z,4.47
2022-12-25T15:02:59.761Z,3.40
2022-12-25T15:05:39.056Z,4.28
2022-12-25T15:08:05.546Z,3.78
2022-12-25T15:11:02.652Z,3.47
2022-12-25T15:13:18.714Z,3.58
2022-12-25T15:15:56.688Z,3.25
2022-12-25T15:18:26.027Z,3.45
2022-12-25T15:20:52.892Z,3.10
2022-12-25T15:23:20.998Z,3.40
2022-12-25T15:25:48.116Z,3.15
2022-12-25T15:28:14.688Z,3.08
2022-12-25T15:30:41.396Z,3.17
2022-12-25T15:33:13.877Z,3.53
2022-12-25T15:35:40.402Z,2.50
2022-12-25T15:38:07.039Z,2.88
2022-12-25T15:40:33.603Z,3.40
2022-12-25T15:43:00.092Z,3.38
2022-12-25T15:45:29.482Z,3.45
2022-12-25T15:47:56.944Z,2.85
2022-12-25T15:50:23.458Z,3.20
2022-12-25T15:52:50.249Z,3.08
2022-12-25T15:55:17.151Z,3.25
2022-12-25T15:57:45.840Z,3.00
2022-12-25T16:00:17.545Z,2.05
2022-12-25T16:02:44.587Z,2.38
2022-12-25T16:05:11.432Z,3.15
2022-12-25T16:07:38.059Z,3.22
2022-12-25T16:10:06.613Z,2.30
2022-12-25T16:12:33.190Z,2.60
2022-12-25T16:14:59.717Z,3.08
2022-12-25T16:17:26.294Z,3.60
2022-12-25T16:19:52.780Z,3.25
2022-12-25T16:22:23.892Z,2.70
2022-12-25T16:24:50.409Z,2.95
2022-12-25T16:27:16.944Z,2.75
2022-12-25T16:29:45.434Z,3.03
2022-12-25T16:32:13.075Z,2.72
2022-12-25T16:34:40.663Z,3.22
2022-12-25T16:37:07.578Z,3.00
2022-12-25T16:39:34.120Z,2.72
2022-12-25T16:42:00.656Z,2.08
2022-12-25T16:44:27.148Z,2.55
2022-12-25T16:46:53.692Z,2.55
2022-12-25T16:49:20.321Z,2.05
2022-12-25T16:51:46.944Z,1.85
2022-12-25T16:54:13.429Z,2.45
2022-12-25T16:56:41.111Z,2.17
2022-12-25T16:59:07.635Z,2.40
2022-12-25T17:01:34.412Z,1.85
2022-12-25T17:04:02.408Z,2.20
2022-12-25T17:06:29.111Z,2.10
2022-12-25T17:08:58.091Z,2.38
2022-12-25T17:11:25.231Z,1.98
2022-12-25T17:13:51.827Z,2.50
2022-12-25T17:16:21.103Z,5.38
2022-12-25T17:18:47.686Z,7.25
2022-12-25T17:21:14.344Z,3.85
2022-12-25T17:23:41.083Z,2.40
2022-12-25T17:26:07.718Z,3.25
2022-12-25T17:28:34.801Z,5.18
2022-12-25T17:31:03.728Z,3.72
2022-12-25T17:33:30.480Z,4.15
2022-12-25T17:36:04.047Z,2.22
2022-12-25T17:38:32.042Z,2.85
2022-12-25T17:40:59.639Z,2.58
2022-12-25T17:43:26.377Z,2.40
2022-12-25T17:45:52.978Z,3.88
2022-12-25T17:48:19.754Z,2.50
2022-12-25T17:50:47.017Z,2.60
2022-12-25T17:53:13.803Z,2.97
2022-12-25T17:55:41.521Z,1.45
2022-12-25T17:58:08.740Z,2.13
2022-12-25T18:00:36.079Z,2.20
2022-12-25T18:03:10.604Z,2.20
2022-12-25T18:05:38.047Z,3.42
2022-12-25T18:08:04.599Z,3.28
2022-12-25T18:10:38.534Z,6.10
2022-12-25T18:13:05.271Z,3.35
2022-12-25T18:15:32.305Z,7.88
2022-12-25T18:17:58.814Z,6.15
2022-12-25T18:20:25.350Z,10.70
2022-12-25T18:22:51.943Z,8.05
2022-12-25T18:25:18.493Z,5.35
2022-12-25T18:27:45.168Z,2.60
2022-12-25T18:30:11.986Z,2.75
2022-12-25T18:32:38.471Z,2.33
2022-12-25T18:35:07.248Z,3.22
2022-12-25T18:37:39.892Z,4.22
2022-12-25T18:40:07.683Z,5.18
2022-12-25T18:42:34.241Z,4.40
2022-12-25T18:45:00.820Z,2.70
2022-12-25T18:47:27.365Z,2.42
2022-12-25T18:49:53.931Z,2.55
2022-12-25T18:52:48.080Z,2.53
2022-12-25T18:55:07.929Z,2.17
2022-12-25T18:57:34.627Z,2.58
2022-12-25T19:00:02.199Z,2.47
2022-12-25T19:02:29.179Z,2.30
2022-12-25T19:04:55.788Z,3.67
2022-12-25T19:07:22.816Z,4.40
2022-12-25T19:09:50.173Z,5.65
2022-12-25T19:12:17.065Z,4.30
2022-12-25T19:14:47.417Z,3.53
2022-12-25T19:17:15.221Z,4.13
2022-12-25T19:19:41.748Z,3.90
2022-12-25T19:22:08.440Z,5.53
2022-12-25T19:24:35.718Z,4.75
2022-12-25T19:27:02.375Z,2.83
2022-12-25T19:29:29.468Z,2.67
2022-12-25T19:31:56.370Z,2.67
2022-12-25T19:34:22.879Z,2.00
2022-12-25T19:36:49.368Z,2.10
2022-12-25T19:39:16.516Z,2.25
2022-12-25T19:41:43.045Z,1.88
2022-12-25T19:44:09.811Z,1.70
2022-12-25T19:46:42.362Z,2.00
2022-12-25T19:49:13.009Z,2.28
2022-12-25T19:51:45.155Z,1.88
2022-12-25T19:54:15.841Z,1.80
2022-12-25T19:56:42.999Z,2.50
2022-12-25T19:59:11.793Z,1.75
2022-12-25T20:01:38.966Z,2.00
2022-12-25T20:04:08.597Z,1.98
2022-12-25T20:06:37.079Z,1.70
2022-12-25T20:09:10.655Z,1.70
2022-12-25T20:11:38.219Z,2.13
2022-12-25T20:14:11.515Z,2.30
2022-12-25T20:16:39.204Z,1.63
2022-12-25T20:19:06.523Z,2.25
2022-12-25T20:21:33.422Z,2.10
2022-12-25T20:23:59.949Z,2.03
2022-12-25T20:26:29.343Z,2.33
2022-12-25T20:28:56.199Z,2.28
2022-12-25T20:31:26.290Z,2.67
2022-12-25T20:33:54.308Z,4.22
2022-12-25T20:36:20.860Z,3.67
2022-12-25T20:38:47.424Z,3.92
2022-12-25T20:41:31.703Z,3.45
2022-12-25T20:43:58.526Z,1.85
2022-12-25T20:46:26.309Z,2.25
2022-12-25T20:48:53.284Z,2.38
2022-12-25T20:51:22.354Z,1.85
2022-12-25T20:53:49.771Z,2.45
2022-12-25T20:56:18.551Z,2.35
2022-12-25T20:58:45.152Z,1.83
2022-12-25T21:01:15.163Z,2.33
2022-12-25T21:03:41.939Z,2.00
2022-12-25T21:06:09.323Z,1.98
2022-12-25T21:08:35.845Z,1.65
2022-12-25T21:11:06.229Z,1.98
2022-12-25T21:13:35.327Z,1.70
2022-12-25T21:16:06.383Z,1.65
2022-12-25T21:18:33.331Z,1.65
2022-12-25T21:21:00.329Z,1.95
2022-12-25T21:23:28.881Z,1.85
2022-12-25T21:25:55.473Z,1.40
2022-12-25T21:28:22.753Z,1.52
2022-12-25T21:30:49.671Z,1.70
2022-12-25T21:33:17.318Z,1.60
2022-12-25T21:35:43.984Z,2.67
2022-12-25T21:38:10.446Z,2.35
2022-12-25T21:40:37.547Z,2.15
2022-12-25T21:43:04.781Z,1.70
2022-12-25T21:45:33.008Z,1.83
2022-12-25T21:48:01.581Z,2.13
2022-12-25T21:50:30.806Z,1.98
2022-12-25T21:52:58.934Z,1.85
2022-12-25T21:55:25.448Z,2.10
2022-12-25T21:57:51.946Z,1.67
2022-12-25T22:00:18.501Z,2.20
2022-12-25T22:02:49.046Z,2.15
2022-12-25T22:05:17.698Z,3.05
2022-12-25T22:07:44.219Z,2.42
2022-12-25T22:10:10.691Z,2.28
2022-12-25T22:12:37.205Z,3.30
2022-12-25T22:15:05.708Z,5.43
2022-12-25T22:17:37.085Z,3.17
2022-12-25T22:20:08.179Z,3.50
2022-12-25T22:22:34.699Z,2.88
2022-12-25T22:25:03.451Z,3.55
2022-12-25T22:27:35.646Z,3.00
2022-12-25T22:30:02.598Z,2.38
2022-12-25T22:32:29.366Z,2.75
2022-12-25T22:34:56.007Z,4.15
2022-12-25T22:37:23.591Z,8.15
2022-12-25T22:39:50.217Z,5.63
2022-12-25T22:42:17.080Z,9.27
2022-12-25T22:44:44.078Z,6.82
2022-12-25T22:47:10.760Z,5.53
2022-12-25T22:49:37.342Z,6.10
2022-12-25T22:52:04.969Z,2.53
2022-12-25T22:54:31.799Z,3.20
2022-12-25T22:56:58.833Z,2.80
2022-12-25T22:59:27.663Z,2.10
2022-12-25T23:01:54.643Z,3.65
2022-12-25T23:04:21.442Z,2.17
2022-12-25T23:06:47.959Z,1.83
2022-12-25T23:09:20.582Z,1.88
2022-12-25T23:11:50.800Z,1.75
2022-12-25T23:14:17.323Z,1.98
2022-12-25T23:16:43.991Z,1.70
2022-12-25T23:19:13.412Z,1.63
2022-12-25T23:21:41.120Z,2.33
2022-12-25T23:24:09.519Z,1.95
2022-12-25T23:26:36.191Z,1.90
2022-12-25T23:29:02.716Z,2.03
2022-12-25T23:31:32.369Z,2.20
2022-12-25T23:33:59.604Z,2.08
2022-12-25T23:36:33.459Z,2.58
2022-12-25T23:39:08.556Z,2.30
2022-12-25T23:41:36.084Z,2.05
2022-12-25T23:44:04.217Z,1.58
2022-12-25T23:46:30.825Z,1.77
2022-12-25T23:48:57.351Z,1.90
2022-12-25T23:51:24.773Z,1.42
2022-12-25T23:53:51.323Z,1.85
2022-12-25T23:56:17.805Z,2.13
2022-12-25T23:58:44.321Z,2.53
